createdAt,value
2022-09-16T00:01:58.538Z,71.12
2022-09-16T00:04:25.203Z,69.79
2022-09-16T00:06:51.790Z,69.15
2022-09-16T00:09:18.364Z,69.22
2022-09-16T00:11:45.163Z,68.46
2022-09-16T00:14:11.740Z,69.01
2022-09-16T00:16:38.451Z,69.96
2022-09-16T00:19:05.005Z,70.47
2022-09-16T00:21:32.171Z,70.12
2022-09-16T00:23:58.838Z,69.70
2022-09-16T00:26:26.099Z,69.96
2022-09-16T00:28:52.968Z,68.70
2022-09-16T00:31:19.638Z,69.82
2022-09-16T00:33:46.973Z,69.47
2022-09-16T00:36:15.968Z,69.48
2022-09-16T00:38:42.736Z,69.39
2022-09-16T00:41:16.398Z,70.08
2022-09-16T00:44:00.862Z,68.95
2022-09-16T00:46:36.324Z,69.17
2022-09-16T00:49:06.567Z,69.38
2022-09-16T00:51:33.587Z,69.28
2022-09-16T00:54:03.238Z,68.44
2022-09-16T00:56:31.861Z,69.10
2022-09-16T00:59:05.030Z,69.63
2022-09-16T01:01:32.282Z,70.06
2022-09-16T01:04:10.186Z,69.75
2022-09-16T01:06:38.989Z,70.03
2022-09-16T01:09:06.040Z,70.31
2022-09-16T01:11:32.617Z,69.80
2022-09-16T01:14:20.161Z,69.97
2022-09-16T01:16:58.110Z,70.26
2022-09-16T01:19:42.938Z,70.39
2022-09-16T01:22:21.495Z,68.65
2022-09-16T01:25:05.559Z,68.90
2022-09-16T01:27:58.061Z,69.69
2022-09-16T01:30:46.179Z,68.91
2022-09-16T01:33:21.040Z,69.00
2022-09-16T01:36:20.477Z,69.85
2022-09-16T01:39:02.132Z,69.38
2022-09-16T01:41:37.639Z,70.49
2022-09-16T01:44:06.975Z,69.96
2022-09-16T01:46:58.654Z,70.27
2022-09-16T01:49:43.586Z,70.60
2022-09-16T01:52:24.469Z,69.50
2022-09-16T01:54:58.622Z,69.26
2022-09-16T01:57:41.208Z,70.13
2022-09-16T02:00:14.010Z,69.68
2022-09-16T02:02:47.592Z,70.14
2022-09-16T02:05:23.012Z,69.83
2022-09-16T02:07:53.290Z,69.44
2022-09-16T02:10:33.157Z,69.75
2022-09-16T02:13:04.205Z,69.79
2022-09-16T02:15:32.597Z,70.32
2022-09-16T02:18:10.929Z,70.37
2022-09-16T02:20:40.709Z,69.55
2022-09-16T02:23:12.273Z,69.44
2022-09-16T02:25:39.949Z,69.53
2022-09-16T02:28:12.804Z,69.54
2022-09-16T02:30:46.889Z,70.39
2022-09-16T02:33:14.782Z,70.24
2022-09-16T02:35:41.491Z,69.37
2022-09-16T02:38:23.492Z,68.75
2022-09-16T02:40:56.470Z,69.35
2022-09-16T02:43:23.938Z,69.65
2022-09-16T02:46:09.247Z,69.56
2022-09-16T02:48:41.792Z,68.36
2022-09-16T02:51:43.918Z,69.41
2022-09-16T02:54:32.307Z,68.84
2022-09-16T02:56:59.324Z,68.80
2022-09-16T02:59:25.884Z,68.91
2022-09-16T03:01:52.611Z,69.07
2022-09-16T03:04:20.431Z,68.44
2022-09-16T03:06:47.982Z,67.26
2022-09-16T03:09:16.876Z,68.44
2022-09-16T03:12:07.603Z,69.15
2022-09-16T03:14:42.754Z,69.77
2022-09-16T03:17:46.464Z,69.77
2022-09-16T03:20:25.166Z,69.19
2022-09-16T03:23:04.860Z,68.76
2022-09-16T03:26:06.100Z,68.53
2022-09-16T03:28:51.646Z,68.57
2022-09-16T03:31:25.794Z,70.24
2022-09-16T03:34:10.376Z,69.46
2022-09-16T03:36:41.293Z,68.60
2022-09-16T03:39:08.294Z,69.33
2022-09-16T03:41:35.519Z,70.24
2022-09-16T03:44:04.297Z,69.68
2022-09-16T03:46:32.467Z,67.47
2022-09-16T03:48:59.572Z,68.00
2022-09-16T03:51:26.602Z,67.54
2022-09-16T03:53:54.425Z,68.50
2022-09-16T03:56:22.995Z,67.00
2022-09-16T03:58:49.524Z,67.15
2022-09-16T04:01:16.341Z,67.59
2022-09-16T04:03:42.991Z,68.13
2022-09-16T04:06:09.803Z,68.59
2022-09-16T04:08:36.335Z,68.41
2022-09-16T04:11:05.439Z,68.42
2022-09-16T04:13:35.690Z,68.79
2022-09-16T04:16:03.763Z,68.32
2022-09-16T04:18:31.674Z,68.40
2022-09-16T04:20:59.614Z,68.54
2022-09-16T04:23:27.500Z,67.83
2022-09-16T04:25:57.259Z,67.92
2022-09-16T04:28:23.973Z,68.66
2022-09-16T04:30:50.599Z,69.10
2022-09-16T04:33:17.166Z,68.32
2022-09-16T04:35:44.065Z,68.95
2022-09-16T04:38:10.632Z,68.61
2022-09-16T04:40:39.656Z,68.77
2022-09-16T04:43:06.349Z,67.84
2022-09-16T04:45:32.904Z,67.13
2022-09-16T04:47:59.435Z,67.30
2022-09-16T04:50:26.034Z,68.38
2022-09-16T04:52:53.256Z,68.43
2022-09-16T04:55:22.942Z,67.88
2022-09-16T04:57:50.367Z,68.60
2022-09-16T05:00:16.971Z,67.96
2022-09-16T05:02:46.423Z,67.89
2022-09-16T05:05:13.340Z,67.93
2022-09-16T05:07:39.920Z,67.97
2022-09-16T05:10:06.990Z,68.31
2022-09-16T05:12:33.494Z,68.88
2022-09-16T05:15:00.279Z,70.70
2022-09-16T05:17:49.805Z,71.72
2022-09-16T05:20:16.266Z,70.65
2022-09-16T05:22:42.774Z,70.88
2022-09-16T05:25:09.555Z,71.06
2022-09-16T05:27:36.145Z,70.82
2022-09-16T05:30:02.748Z,71.30
2022-09-16T05:32:29.394Z,69.33
2022-09-16T05:34:56.261Z,70.13
2022-09-16T05:37:22.869Z,70.89
2022-09-16T05:39:49.667Z,70.78
2022-09-16T05:42:16.227Z,69.90
2022-09-16T05:44:43.157Z,69.05
2022-09-16T05:47:09.700Z,69.33
2022-09-16T05:49:37.130Z,70.90
2022-09-16T05:52:03.736Z,70.99
2022-09-16T05:54:31.558Z,70.11
2022-09-16T05:57:02.204Z,69.57
2022-09-16T05:59:31.167Z,71.21
2022-09-16T06:01:57.817Z,71.53
2022-09-16T06:04:24.794Z,70.66
2022-09-16T06:06:51.367Z,69.47
2022-09-16T06:09:22.828Z,71.00
2022-09-16T06:11:51.145Z,69.82
2022-09-16T06:14:19.371Z,70.45
2022-09-16T06:16:46.417Z,70.61
2022-09-16T06:19:17.347Z,71.39
2022-09-16T06:21:44.909Z,70.79
2022-09-16T06:24:13.507Z,72.03
2022-09-16T06:26:41.781Z,70.85
2022-09-16T06:29:09.305Z,71.04
2022-09-16T06:31:36.689Z,70.76
2022-09-16T06:34:03.763Z,71.49
2022-09-16T06:36:38.522Z,71.01
2022-09-16T06:39:07.158Z,71.99
2022-09-16T06:41:34.570Z,70.72
2022-09-16T06:44:01.309Z,71.05
2022-09-16T06:46:28.675Z,71.41
2022-09-16T06:48:58.592Z,71.60
2022-09-16T06:51:29.471Z,71.85
2022-09-16T06:54:01.490Z,71.93
2022-09-16T06:56:28.082Z,71.73
2022-09-16T06:58:58.449Z,71.91
2022-09-16T07:01:29.044Z,71.17
2022-09-16T07:03:57.388Z,71.17
2022-09-16T07:06:44.922Z,71.08
2022-09-16T07:09:12.797Z,72.45
2022-09-16T07:11:40.736Z,72.32
2022-09-16T07:14:08.056Z,71.60
2022-09-16T07:16:34.781Z,71.71
2022-09-16T07:19:01.837Z,72.21
2022-09-16T07:21:30.359Z,71.67
2022-09-16T07:24:02.044Z,72.64
2022-09-16T07:26:31.491Z,72.51
2022-09-16T07:29:03.068Z,72.79
2022-09-16T07:31:32.316Z,71.28
2022-09-16T07:34:04.403Z,72.22
2022-09-16T07:36:36.898Z,72.88
2022-09-16T07:39:04.674Z,72.49
2022-09-16T07:41:33.303Z,73.13
2022-09-16T07:44:00.707Z,71.33
2022-09-16T07:46:29.787Z,70.00
2022-09-16T07:48:56.634Z,71.25
2022-09-16T07:51:25.149Z,71.09
2022-09-16T07:53:56.457Z,70.81
2022-09-16T07:56:25.567Z,71.15
2022-09-16T07:58:53.184Z,71.87
2022-09-16T08:01:19.924Z,70.45
2022-09-16T08:03:47.131Z,70.14
2022-09-16T08:06:15.907Z,72.13
2022-09-16T08:08:43.041Z,69.83
2022-09-16T08:11:10.289Z,70.64
2022-09-16T08:13:37.638Z,69.62
2022-09-16T08:16:10.664Z,69.53
2022-09-16T08:18:37.441Z,71.45
2022-09-16T08:21:16.324Z,72.36
2022-09-16T08:23:43.243Z,70.48
2022-09-16T08:26:11.303Z,71.16
2022-09-16T08:28:51.091Z,73.16
2022-09-16T08:31:26.599Z,74.08
2022-09-16T08:33:53.557Z,74.40
2022-09-16T08:36:24.497Z,73.01
2022-09-16T08:38:53.385Z,72.45
2022-09-16T08:41:52.473Z,70.83
2022-09-16T08:44:33.944Z,71.27
2022-09-16T08:47:19.155Z,70.56
2022-09-16T08:49:51.324Z,70.22
2022-09-16T08:52:29.652Z,70.95
2022-09-16T08:55:23.469Z,72.96
2022-09-16T08:58:26.634Z,72.11
2022-09-16T09:00:56.723Z,71.98
2022-09-16T09:03:39.605Z,71.98
2022-09-16T09:06:29.199Z,69.45
2022-09-16T09:09:14.563Z,71.88
2022-09-16T09:11:53.530Z,69.93
2022-09-16T09:14:33.053Z,70.63
2022-09-16T09:17:13.553Z,72.45
2022-09-16T09:19:45.939Z,71.78
2022-09-16T09:22:29.668Z,72.43
2022-09-16T09:25:05.172Z,71.94
2022-09-16T09:27:40.494Z,71.05
2022-09-16T09:30:20.679Z,69.89
2022-09-16T09:33:34.327Z,71.79
2022-09-16T09:36:58.593Z,71.50
2022-09-16T09:39:46.552Z,71.27
2022-09-16T09:42:19.618Z,71.80
2022-09-16T09:45:02.335Z,71.56
2022-09-16T09:47:47.368Z,71.63
2022-09-16T09:50:28.644Z,70.73
2022-09-16T09:53:34.687Z,71.39
2022-09-16T09:56:14.342Z,70.23
2022-09-16T09:58:49.021Z,67.76
2022-09-16T10:01:16.316Z,68.09
2022-09-16T10:03:43.072Z,67.35
2022-09-16T10:06:10.547Z,69.57
2022-09-16T10:08:46.029Z,69.23
2022-09-16T10:11:21.829Z,69.74
2022-09-16T10:13:54.324Z,70.72
2022-09-16T10:16:22.952Z,70.95
2022-09-16T10:19:17.430Z,70.03
2022-09-16T10:21:47.629Z,69.33
2022-09-16T10:24:34.583Z,71.18
2022-09-16T10:27:17.099Z,70.48
2022-09-16T10:29:43.667Z,70.10
2022-09-16T10:32:16.694Z,68.99
2022-09-16T10:34:44.529Z,71.06
2022-09-16T10:37:12.044Z,70.31
2022-09-16T10:39:46.088Z,71.06
2022-09-16T10:42:26.489Z,71.45
2022-09-16T10:44:55.992Z,71.07
2022-09-16T10:47:28.148Z,70.83
2022-09-16T10:49:57.058Z,69.30
2022-09-16T10:52:28.999Z,70.71
2022-09-16T10:54:56.682Z,69.22
2022-09-16T10:57:31.775Z,71.45
2022-09-16T11:00:10.557Z,70.33
2022-09-16T11:02:46.109Z,70.68
2022-09-16T11:05:17.119Z,68.32
2022-09-16T11:08:02.854Z,69.70
2022-09-16T11:10:41.398Z,68.89
2022-09-16T11:13:29.370Z,68.89
2022-09-16T11:16:11.161Z,70.68
2022-09-16T11:19:11.904Z,69.46
2022-09-16T11:21:56.785Z,68.55
2022-09-16T11:24:37.501Z,68.21
2022-09-16T11:27:22.362Z,70.07
2022-09-16T11:30:16.970Z,70.01
2022-09-16T11:33:02.145Z,69.36
2022-09-16T11:35:33.041Z,68.89
2022-09-16T11:38:18.171Z,70.43
2022-09-16T11:41:04.003Z,69.74
2022-09-16T11:43:53.294Z,69.35
2022-09-16T11:46:53.996Z,69.33
2022-09-16T11:49:54.585Z,65.54
2022-09-16T11:52:54.136Z,68.27
2022-09-16T11:55:33.868Z,66.98
2022-09-16T11:58:24.600Z,69.39
2022-09-16T12:00:52.958Z,68.90
2022-09-16T12:03:28.923Z,67.67
2022-09-16T12:06:04.604Z,67.35
2022-09-16T12:08:53.026Z,66.72
2022-09-16T12:11:35.393Z,60.66
2022-09-16T12:14:13.463Z,65.49
2022-09-16T12:16:53.183Z,62.87
2022-09-16T12:19:36.467Z,62.16
2022-09-16T12:22:09.090Z,64.92
2022-09-16T12:24:43.986Z,62.81
2022-09-16T12:27:34.779Z,62.78
2022-09-16T12:30:12.182Z,61.45
2022-09-16T12:32:47.738Z,59.68
2022-09-16T12:35:17.621Z,58.10
2022-09-16T12:37:48.436Z,61.21
2022-09-16T12:40:24.229Z,58.00
2022-09-16T12:43:02.714Z,61.15
2022-09-16T12:46:05.590Z,59.91
2022-09-16T12:48:53.689Z,59.57
2022-09-16T12:51:47.013Z,60.05
2022-09-16T12:54:51.263Z,57.54
2022-09-16T12:57:44.633Z,57.04
2022-09-16T13:00:20.820Z,54.83
2022-09-16T13:02:56.807Z,58.65
2022-09-16T13:05:35.031Z,58.22
2022-09-16T13:08:20.142Z,58.76
2022-09-16T13:11:05.045Z,60.75
2022-09-16T13:13:47.181Z,57.52
2022-09-16T13:16:13.846Z,56.74
2022-09-16T13:18:45.833Z,58.05
2022-09-16T13:21:12.245Z,55.76
2022-09-16T13:23:43.547Z,55.25
2022-09-16T13:26:10.271Z,57.30
2022-09-16T13:28:39.923Z,55.09
2022-09-16T13:31:12.802Z,57.00
2022-09-16T13:34:02.092Z,53.56
2022-09-16T13:36:31.106Z,56.29
2022-09-16T13:39:03.332Z,59.77
2022-09-16T13:41:34.196Z,56.45
2022-09-16T13:44:01.254Z,54.86
2022-09-16T13:46:37.638Z,54.51
2022-09-16T13:49:13.003Z,57.62
2022-09-16T13:51:48.980Z,52.75
2022-09-16T13:54:19.214Z,57.41
2022-09-16T13:56:58.716Z,54.53
2022-09-16T14:02:57.889Z,57.40
2022-09-16T14:05:40.412Z,57.16
2022-09-16T14:08:19.121Z,58.57
2022-09-16T14:11:12.739Z,54.26
2022-09-16T14:13:48.398Z,54.01
2022-09-16T14:16:26.460Z,57.48
2022-09-16T14:19:04.355Z,56.64
2022-09-16T14:21:31.221Z,58.16
2022-09-16T14:24:18.439Z,56.00
2022-09-16T14:26:55.974Z,56.54
2022-09-16T14:29:23.997Z,52.77
2022-09-16T14:31:52.584Z,57.09
2022-09-16T14:34:27.526Z,56.52
2022-09-16T14:36:54.280Z,54.92
2022-09-16T14:39:22.673Z,52.42
2022-09-16T14:41:56.087Z,54.14
2022-09-16T14:44:44.748Z,55.22
2022-09-16T14:47:31.090Z,54.09
2022-09-16T14:50:15.567Z,53.99
2022-09-16T14:53:00.222Z,52.28
2022-09-16T14:55:29.980Z,56.17
2022-09-16T14:57:57.938Z,56.04
2022-09-16T15:00:33.541Z,52.33
2022-09-16T15:03:12.672Z,53.96
2022-09-16T15:05:41.464Z,55.75
2022-09-16T15:08:58.589Z,50.62
2022-09-16T15:11:49.086Z,53.96
2022-09-16T15:14:17.303Z,55.21
2022-09-16T15:16:56.043Z,51.98
2022-09-16T15:19:26.035Z,58.68
2022-09-16T15:21:52.866Z,57.32
2022-09-16T15:24:26.539Z,53.66
2022-09-16T15:26:53.903Z,55.54
2022-09-16T15:29:20.697Z,57.67
2022-09-16T15:31:47.761Z,56.51
2022-09-16T15:34:23.161Z,59.16
2022-09-16T15:36:58.401Z,55.76
2022-09-16T15:39:29.803Z,57.37
2022-09-16T15:42:10.325Z,56.57
2022-09-16T15:44:38.716Z,54.83
2022-09-16T15:47:05.412Z,57.35
2022-09-16T15:49:36.416Z,57.86
2022-09-16T15:52:07.468Z,57.45
2022-09-16T15:54:47.848Z,57.25
2022-09-16T15:57:33.456Z,57.88
2022-09-16T16:00:12.993Z,57.48
2022-09-16T16:02:58.560Z,53.50
2022-09-16T16:05:31.890Z,56.49
2022-09-16T16:08:08.986Z,56.74
2022-09-16T16:10:36.559Z,54.57
2022-09-16T16:13:06.510Z,55.16
2022-09-16T16:15:34.699Z,57.27
2022-09-16T16:18:05.607Z,57.79
2022-09-16T16:20:33.928Z,58.50
2022-09-16T16:23:01.164Z,56.99
2022-09-16T16:25:28.116Z,56.57
2022-09-16T16:27:54.821Z,55.78
2022-09-16T16:30:21.432Z,58.24
2022-09-16T16:32:48.647Z,57.23
2022-09-16T16:35:15.230Z,59.63
2022-09-16T16:37:48.881Z,55.70
2022-09-16T16:40:15.859Z,58.24
2022-09-16T16:42:43.585Z,60.17
2022-09-16T16:45:13.788Z,58.98
2022-09-16T16:47:40.905Z,59.09
2022-09-16T16:50:07.903Z,57.13
2022-09-16T16:52:34.520Z,59.86
2022-09-16T16:55:01.252Z,58.18
2022-09-16T16:57:29.027Z,58.95
2022-09-16T16:59:55.527Z,54.61
2022-09-16T17:02:22.244Z,58.83
2022-09-16T17:04:48.864Z,57.19
2022-09-16T17:07:25.706Z,58.90
2022-09-16T17:09:53.900Z,58.81
2022-09-16T17:12:20.511Z,59.46
2022-09-16T17:14:47.327Z,56.99
2022-09-16T17:17:13.870Z,58.53
2022-09-16T17:19:40.607Z,59.18
2022-09-16T17:22:07.100Z,60.40
2022-09-16T17:24:34.844Z,60.33
2022-09-16T17:27:01.987Z,59.94
2022-09-16T17:29:28.671Z,62.39
2022-09-16T17:31:57.149Z,64.52
2022-09-16T17:34:26.298Z,64.76
2022-09-16T17:36:52.987Z,66.13
2022-09-16T17:39:20.855Z,66.92
2022-09-16T17:41:48.801Z,68.80
2022-09-16T17:44:16.051Z,68.49
2022-09-16T17:46:43.176Z,67.95
2022-09-16T17:49:21.626Z,66.45
2022-09-16T17:51:49.092Z,68.42
2022-09-16T17:54:15.835Z,68.15
2022-09-16T17:56:43.074Z,68.83
2022-09-16T17:59:10.824Z,69.66
2022-09-16T18:01:38.082Z,68.19
2022-09-16T18:04:04.771Z,69.46
2022-09-16T18:06:40.878Z,69.79
2022-09-16T18:09:07.876Z,69.19
2022-09-16T18:11:35.406Z,68.53
2022-09-16T18:14:03.643Z,69.20
2022-09-16T18:16:30.543Z,69.50
2022-09-16T18:18:59.050Z,69.34
2022-09-16T18:21:25.798Z,70.07
2022-09-16T18:23:54.411Z,70.23
2022-09-16T18:26:21.194Z,70.68
2022-09-16T18:29:09.181Z,70.86
2022-09-16T18:31:35.943Z,70.59
2022-09-16T18:34:02.841Z,71.15
2022-09-16T18:36:30.473Z,71.16
2022-09-16T18:38:58.156Z,70.36
2022-09-16T18:41:34.721Z,70.10
2022-09-16T18:44:07.424Z,70.20
2022-09-16T18:46:37.865Z,69.93
2022-09-16T18:49:05.309Z,71.05
2022-09-16T18:51:37.644Z,71.06
2022-09-16T18:54:07.191Z,68.86
2022-09-16T18:56:35.884Z,69.98
2022-09-16T18:59:20.930Z,68.31
2022-09-16T19:01:50.966Z,68.57
2022-09-16T19:04:20.087Z,69.46
2022-09-16T19:06:49.609Z,69.34
2022-09-16T19:09:18.026Z,69.32
2022-09-16T19:11:44.811Z,70.68
2022-09-16T19:14:15.124Z,70.27
2022-09-16T19:16:42.984Z,69.50
2022-09-16T19:19:11.163Z,69.86
2022-09-16T19:21:37.973Z,70.50
2022-09-16T19:24:07.162Z,69.64
2022-09-16T19:26:35.901Z,68.75
2022-09-16T19:29:03.462Z,70.27
2022-09-16T19:31:31.390Z,69.55
2022-09-16T19:33:59.098Z,70.13
2022-09-16T19:36:28.111Z,68.69
2022-09-16T19:38:55.925Z,70.27
2022-09-16T19:41:25.678Z,70.23
2022-09-16T19:43:57.003Z,70.48
2022-09-16T19:46:24.165Z,69.80
2022-09-16T19:48:51.222Z,69.84
2022-09-16T19:51:19.621Z,69.38
2022-09-16T19:53:46.889Z,69.28
2022-09-16T19:56:16.126Z,69.61
2022-09-16T19:58:42.809Z,69.90
2022-09-16T20:01:18.726Z,70.15
2022-09-16T20:03:46.068Z,70.15
2022-09-16T20:06:18.030Z,68.61
2022-09-16T20:08:46.052Z,69.46
2022-09-16T20:11:16.868Z,67.44
2022-09-16T20:13:51.264Z,67.81
2022-09-16T20:16:18.986Z,67.08
2022-09-16T20:18:45.863Z,68.30
2022-09-16T20:21:15.056Z,67.30
2022-09-16T20:23:41.819Z,67.85
2022-09-16T20:26:09.511Z,68.01
2022-09-16T20:28:38.788Z,68.15
2022-09-16T20:31:05.904Z,67.94
2022-09-16T20:33:33.525Z,67.88
2022-09-16T20:36:08.474Z,67.14
2022-09-16T20:38:35.091Z,67.79
2022-09-16T20:41:13.510Z,68.15
2022-09-16T20:43:40.964Z,68.50
2022-09-16T20:46:12.647Z,68.07
2022-09-16T20:48:40.295Z,68.70
2022-09-16T20:51:10.056Z,68.50
2022-09-16T20:53:37.736Z,68.91
2022-09-16T20:56:07.839Z,68.95
2022-09-16T20:58:35.000Z,69.41
2022-09-16T21:01:06.787Z,68.74
2022-09-16T21:03:33.931Z,68.23
2022-09-16T21:06:04.886Z,69.62
2022-09-16T21:08:34.174Z,68.34
2022-09-16T21:11:08.294Z,69.05
2022-09-16T21:13:35.699Z,68.71
2022-09-16T21:16:02.978Z,68.66
2022-09-16T21:18:30.636Z,68.22
2022-09-16T21:21:04.889Z,67.07
2022-09-16T21:23:32.795Z,68.07
2022-09-16T21:26:04.016Z,67.29
2022-09-16T21:28:31.759Z,66.03
2022-09-16T21:31:01.486Z,68.33
2022-09-16T21:33:29.788Z,67.83
2022-09-16T21:35:56.353Z,68.05
2022-09-16T21:38:23.497Z,66.20
2022-09-16T21:41:00.982Z,66.94
2022-09-16T21:43:32.181Z,67.64
2022-09-16T21:45:59.365Z,65.67
2022-09-16T21:48:28.221Z,66.74
2022-09-16T21:51:01.718Z,65.54
2022-09-16T21:53:28.291Z,67.72
2022-09-16T21:56:03.700Z,67.80
2022-09-16T21:58:30.785Z,67.15
2022-09-16T22:01:17.499Z,67.82
2022-09-16T22:03:46.085Z,67.65
2022-09-16T22:06:14.395Z,67.40
2022-09-16T22:08:48.584Z,66.77
2022-09-16T22:11:17.752Z,67.38
2022-09-16T22:13:44.391Z,67.29
2022-09-16T22:16:17.415Z,68.15
2022-09-16T22:18:45.124Z,66.89
2022-09-16T22:21:13.666Z,66.34
2022-09-16T22:23:41.517Z,66.23
2022-09-16T22:26:13.169Z,66.86
2022-09-16T22:28:40.457Z,68.16
2022-09-16T22:31:11.627Z,68.77
2022-09-16T22:33:40.461Z,66.21
2022-09-16T22:36:12.283Z,68.24
2022-09-16T22:38:39.221Z,68.44
2022-09-16T22:41:08.326Z,66.73
2022-09-16T22:43:39.996Z,68.40
2022-09-16T22:46:15.015Z,67.19
2022-09-16T22:48:42.124Z,68.99
2022-09-16T22:51:10.995Z,66.86
2022-09-16T22:53:37.542Z,68.72
2022-09-16T22:56:06.500Z,69.09
2022-09-16T22:58:33.102Z,67.96
2022-09-16T23:01:17.045Z,67.34
2022-09-16T23:03:45.300Z,67.88
2022-09-16T23:06:14.046Z,67.13
2022-09-16T23:08:42.759Z,67.57
2022-09-16T23:11:11.216Z,68.55
2022-09-16T23:13:41.967Z,68.12
2022-09-16T23:16:12.726Z,69.23
2022-09-16T23:18:39.359Z,67.68
2022-09-16T23:21:10.676Z,67.53
2022-09-16T23:23:39.327Z,66.33
2022-09-16T23:26:07.850Z,68.66
2022-09-16T23:28:34.909Z,67.75
2022-09-16T23:31:10.311Z,67.98
2022-09-16T23:33:37.368Z,66.96
2022-09-16T23:36:05.305Z,67.45
2022-09-16T23:38:31.962Z,67.53
2022-09-16T23:41:04.935Z,68.66
2022-09-16T23:43:31.560Z,68.36
2022-09-16T23:45:59.058Z,67.75
2022-09-16T23:48:25.695Z,68.17
2022-09-16T23:50:52.201Z,68.27
2022-09-16T23:53:18.703Z,67.54
2022-09-16T23:55:45.847Z,67.37
2022-09-16T23:58:12.498Z,68.00
